Disclaimer

Please do not use the information listed here in-flight or in-navigation, as they are not provided to us by the airports but are provided by volunteers, so they might be outdated.

Search


Regions


Airport information page

Radio informations:
Tower (TWR) - 118.7 MHz
Approach (APP) - 119.1 MHz

Airport informations:
Latitude: 08° 42' 33.46" S
Longitude: 063° 54' 08.21" W
Elevation: 294 feet - 90 meters
Operating hours: 24 hour operations
Operating agency: Civil government, landing fees and diplomatic clearance may be required
Timezone: UTC-4(-3DT)
Fuel: Jet A1, without icing nhibitor.

100/130 octane gasoline, leaded, MIL-L-5572F (GREEN)

Runway information:
01/19 - 7925 x 148 feet< - >2416 x 45 meters

Recent METARs:
SBPV 201500Z 09001KT 9999 SCT020 SCT037 BKN100 30/23 Q1012
SBPV 201500Z 09001KT 9999 SCT020 SCT037 BKN100 30/23 Q1012
SBPV 201600Z 09004KT 9999 SCT020 SCT037 32/24 Q1011

Airport on the map: